sensor_id;sensor_type;location;lat;lon;timestamp;temperature;humidity
1083;DHT22;530;51.448;7.238;2024-01-15T00:02:06;2.40;99.90
1083;DHT22;530;51.448;7.238;2024-01-15T00:04:36;2.30;99.90
1083;DHT22;530;51.448;7.238;2024-01-15T00:07:03;2.40;99.90
1083;DHT22;530;51.448;7.238;2024-01-15T00:09:28;2.40;99.90
1083;DHT22;530;51.448;7.238;2024-01-15T00:11:54;2.40;99.90
1083;DHT22;530;51.448;7.238;2024-01-15T00:14:20;2.40;99.90
1083;DHT22;530;51.448;7.238;2024-01-15T00:16:46;2.40;99.90
1083;DHT22;530;51.448;7.238;2024-01-15T00:19:12;2.40;99.90
1083;DHT22;530;51.448;7.238;2024-01-15T00:21:38;2.40;99.90
1083;DHT22;530;51.448;7.238;2024-01-15T00:24:03;2.40;99.90
1083;DHT22;530;51.448;7.238;2024-01-15T00:26:29;2.40;99.90
1083;DHT22;530;51.448;7.238;2024-01-15T00:28:55;2.40;99.90
1083;DHT22;530;51.448;7.238;2024-01-15T00:31:21;2.40;99.90
1083;DHT22;530;51.448;7.238;2024-01-15T00:33:46;2.40;99.90
1083;DHT22;530;51.448;7.238;2024-01-15T00:36:12;2.40;99.90
1083;DHT22;530;51.448;7.238;2024-01-15T00:38:39;2.40;99.90
1083;DHT22;530;51.448;7.238;2024-01-15T00:41:04;2.40;99.90
1083;DHT22;530;51.448;7.238;2024-01-15T00:43:30;2.40;99.90
1083;DHT22;530;51.448;7.238;2024-01-15T00:45:56;2.40;99.90
1083;DHT22;530;51.448;7.238;2024-01-15T00:48:21;2.40;99.90
1083;DHT22;530;51.448;7.238;2024-01-15T00:50:47;2.40;99.90
1083;DHT22;530;51.448;7.238;2024-01-15T00:53:13;2.50;99.90
1083;DHT22;530;51.448;7.238;2024-01-15T00:55:38;2.40;99.90
1083;DHT22;530;51.448;7.238;2024-01-15T00:58:04;2.40;99.90
1083;DHT22;530;51.448;7.238;2024-01-15T01:00:30;2.40;99.90
1083;DHT22;530;51.448;7.238;2024-01-15T01:02:55;2.40;99.90
1083;DHT22;530;51.448;7.238;2024-01-15T01:05:21;2.40;99.90
1083;DHT22;530;51.448;7.238;2024-01-15T01:07:47;2.40;99.90
1083;DHT22;530;51.448;7.238;2024-01-15T01:10:12;2.40;99.90
1083;DHT22;530;51.448;7.238;2024-01-15T01:12:38;2.40;99.90
1083;DHT22;530;51.448;7.238;2024-01-15T01:15:04;2.40;99.90
1083;DHT22;530;51.448;7.238;2024-01-15T01:17:30;2.40;99.90
1083;DHT22;530;51.448;7.238;2024-01-15T01:19:56;2.40;99.90
1083;DHT22;530;51.448;7.238;2024-01-15T01:22:21;2.40;99.90
1083;DHT22;530;51.448;7.238;2024-01-15T01:24:47;2.40;99.90
1083;DHT22;530;51.448;7.238;2024-01-15T01:27:13;2.40;99.90
1083;DHT22;530;51.448;7.238;2024-01-15T01:29:38;2.40;99.90
1083;DHT22;530;51.448;7.238;2024-01-15T01:32:04;2.40;99.90
1083;DHT22;530;51.448;7.238;2024-01-15T01:34:33;2.40;99.90
1083;DHT22;530;51.448;7.238;2024-01-15T01:37:05;2.50;99.90
1083;DHT22;530;51.448;7.238;2024-01-15T01:39:30;2.50;99.90
1083;DHT22;530;51.448;7.238;2024-01-15T01:41:56;2.50;99.90
1083;DHT22;530;51.448;7.238;2024-01-15T01:44:22;2.50;99.90
1083;DHT22;530;51.448;7.238;2024-01-15T01:46:47;2.50;99.90
1083;DHT22;530;51.448;7.238;2024-01-15T01:49:13;2.50;99.90
1083;DHT22;530;51.448;7.238;2024-01-15T01:51:39;2.50;99.90
1083;DHT22;530;51.448;7.238;2024-01-15T01:54:06;2.50;99.90
1083;DHT22;530;51.448;7.238;2024-01-15T01:56:33;2.50;99.90
1083;DHT22;530;51.448;7.238;2024-01-15T01:59:00;2.50;99.90
1083;DHT22;530;51.448;7.238;2024-01-15T02:01:26;2.50;99.90
1083;DHT22;530;51.448;7.238;2024-01-15T02:03:52;2.50;99.90
1083;DHT22;530;51.448;7.238;2024-01-15T02:06:18;2.50;99.90
1083;DHT22;530;51.448;7.238;2024-01-15T02:08:44;2.50;99.90
1083;DHT22;530;51.448;7.238;2024-01-15T02:11:10;2.50;99.90
1083;DHT22;530;51.448;7.238;2024-01-15T02:13:36;2.50;99.90
1083;DHT22;530;51.448;7.238;2024-01-15T02:16:02;2.50;99.90
1083;DHT22;530;51.448;7.238;2024-01-15T02:18:27;2.50;99.90
1083;DHT22;530;51.448;7.238;2024-01-15T02:20:53;2.50;99.90
1083;DHT22;530;51.448;7.238;2024-01-15T02:23:18;2.50;99.90
1083;DHT22;530;51.448;7.238;2024-01-15T02:25:46;2.50;99.90
1083;DHT22;530;51.448;7.238;2024-01-15T02:28:16;2.50;99.90
1083;DHT22;530;51.448;7.238;2024-01-15T02:30:43;2.50;99.90
1083;DHT22;530;51.448;7.238;2024-01-15T02:33:10;2.50;99.90
1083;DHT22;530;51.448;7.238;2024-01-15T02:35:35;2.50;99.90
1083;DHT22;530;51.448;7.238;2024-01-15T02:38:05;2.50;99.90
1083;DHT22;530;51.448;7.238;2024-01-15T02:40:31;2.50;99.90
1083;DHT22;530;51.448;7.238;2024-01-15T02:42:57;2.50;99.90
1083;DHT22;530;51.448;7.238;2024-01-15T02:45:23;2.50;99.90
1083;DHT22;530;51.448;7.238;2024-01-15T02:47:49;2.50;99.90
1083;DHT22;530;51.448;7.238;2024-01-15T02:50:14;2.60;99.90
1083;DHT22;530;51.448;7.238;2024-01-15T02:52:41;2.50;99.90
1083;DHT22;530;51.448;7.238;2024-01-15T02:55:07;2.50;99.90
1083;DHT22;530;51.448;7.238;2024-01-15T02:57:33;2.50;99.90
1083;DHT22;530;51.448;7.238;2024-01-15T02:59:59;2.50;99.90
1083;DHT22;530;51.448;7.238;2024-01-15T03:02:25;2.50;99.90
1083;DHT22;530;51.448;7.238;2024-01-15T03:04:50;2.50;99.90
1083;DHT22;530;51.448;7.238;2024-01-15T03:07:16;2.50;99.90
1083;DHT22;530;51.448;7.238;2024-01-15T03:09:42;2.50;99.90
1083;DHT22;530;51.448;7.238;2024-01-15T03:12:07;2.50;99.90
1083;DHT22;530;51.448;7.238;2024-01-15T03:14:33;2.50;99.90
1083;DHT22;530;51.448;7.238;2024-01-15T03:17:00;2.50;99.90
1083;DHT22;530;51.448;7.238;2024-01-15T03:19:26;2.50;99.90
1083;DHT22;530;51.448;7.238;2024-01-15T03:21:52;2.50;99.90
1083;DHT22;530;51.448;7.238;2024-01-15T03:24:17;2.50;99.90
1083;DHT22;530;51.448;7.238;2024-01-15T03:26:43;2.50;99.90
1083;DHT22;530;51.448;7.238;2024-01-15T03:29:09;2.50;99.90
1083;DHT22;530;51.448;7.238;2024-01-15T03:31:34;2.50;99.90
1083;DHT22;530;51.448;7.238;2024-01-15T03:34:00;2.50;99.90
1083;DHT22;530;51.448;7.238;2024-01-15T03:36:26;2.50;99.90
1083;DHT22;530;51.448;7.238;2024-01-15T03:38:52;2.50;99.90
1083;DHT22;530;51.448;7.238;2024-01-15T03:41:17;2.50;99.90
1083;DHT22;530;51.448;7.238;2024-01-15T03:43:43;2.50;99.90
1083;DHT22;530;51.448;7.238;2024-01-15T03:46:11;2.60;99.90
1083;DHT22;530;51.448;7.238;2024-01-15T03:48:37;2.50;99.90
1083;DHT22;530;51.448;7.238;2024-01-15T03:51:02;2.50;99.90
1083;DHT22;530;51.448;7.238;2024-01-15T03:53:28;2.50;99.90
1083;DHT22;530;51.448;7.238;2024-01-15T03:55:54;2.50;99.90
1083;DHT22;530;51.448;7.238;2024-01-15T03:58:19;2.50;99.90
1083;DHT22;530;51.448;7.238;2024-01-15T04:00:45;2.50;99.90
1083;DHT22;530;51.448;7.238;2024-01-15T04:03:11;2.50;99.90
1083;DHT22;530;51.448;7.238;2024-01-15T04:05:36;2.50;99.90
1083;DHT22;530;51.448;7.238;2024-01-15T04:08:03;2.60;99.90
1083;DHT22;530;51.448;7.238;2024-01-15T04:10:29;2.60;99.90
1083;DHT22;530;51.448;7.238;2024-01-15T04:12:54;2.60;99.90
1083;DHT22;530;51.448;7.238;2024-01-15T04:15:20;2.60;99.90
1083;DHT22;530;51.448;7.238;2024-01-15T04:17:46;2.60;99.90
1083;DHT22;530;51.448;7.238;2024-01-15T04:20:11;2.60;99.90
1083;DHT22;530;51.448;7.238;2024-01-15T04:22:37;2.60;99.90
1083;DHT22;530;51.448;7.238;2024-01-15T04:25:03;2.60;99.90
1083;DHT22;530;51.448;7.238;2024-01-15T04:27:29;2.50;99.90
1083;DHT22;530;51.448;7.238;2024-01-15T04:29:55;2.50;99.90
1083;DHT22;530;51.448;7.238;2024-01-15T04:32:21;2.50;99.90
1083;DHT22;530;51.448;7.238;2024-01-15T04:34:46;2.60;99.90
1083;DHT22;530;51.448;7.238;2024-01-15T04:37:13;2.60;99.90
1083;DHT22;530;51.448;7.238;2024-01-15T04:39:39;2.50;99.90
1083;DHT22;530;51.448;7.238;2024-01-15T04:42:05;2.50;99.90
1083;DHT22;530;51.448;7.238;2024-01-15T04:44:31;2.50;99.90
1083;DHT22;530;51.448;7.238;2024-01-15T04:46:56;2.50;99.90
1083;DHT22;530;51.448;7.238;2024-01-15T04:49:22;2.40;99.90
1083;DHT22;530;51.448;7.238;2024-01-15T04:51:48;2.50;99.90
1083;DHT22;530;51.448;7.238;2024-01-15T04:54:13;2.50;99.90
1083;DHT22;530;51.448;7.238;2024-01-15T04:56:43;2.50;99.90
1083;DHT22;530;51.448;7.238;2024-01-15T04:59:10;2.50;99.90
1083;DHT22;530;51.448;7.238;2024-01-15T05:01:36;2.50;99.90
1083;DHT22;530;51.448;7.238;2024-01-15T05:04:01;2.50;99.90
1083;DHT22;530;51.448;7.238;2024-01-15T05:06:27;2.50;99.90
1083;DHT22;530;51.448;7.238;2024-01-15T05:08:53;2.50;99.90
1083;DHT22;530;51.448;7.238;2024-01-15T05:11:19;2.50;99.90
1083;DHT22;530;51.448;7.238;2024-01-15T05:13:44;2.50;99.90
1083;DHT22;530;51.448;7.238;2024-01-15T05:16:10;2.50;99.90
1083;DHT22;530;51.448;7.238;2024-01-15T05:18:36;2.50;99.90
1083;DHT22;530;51.448;7.238;2024-01-15T05:21:03;2.50;99.90
1083;DHT22;530;51.448;7.238;2024-01-15T05:23:30;2.50;99.90
1083;DHT22;530;51.448;7.238;2024-01-15T05:25:56;2.50;99.90
1083;DHT22;530;51.448;7.238;2024-01-15T05:28:22;2.50;99.90
1083;DHT22;530;51.448;7.238;2024-01-15T05:30:48;2.50;99.90
1083;DHT22;530;51.448;7.238;2024-01-15T05:33:16;2.50;99.90
1083;DHT22;530;51.448;7.238;2024-01-15T05:35:42;2.50;99.90
1083;DHT22;530;51.448;7.238;2024-01-15T05:38:07;2.50;99.90
1083;DHT22;530;51.448;7.238;2024-01-15T05:40:33;2.50;99.90
1083;DHT22;530;51.448;7.238;2024-01-15T05:42:59;2.40;99.90
1083;DHT22;530;51.448;7.238;2024-01-15T05:45:26;2.50;99.90
1083;DHT22;530;51.448;7.238;2024-01-15T05:47:52;2.50;99.90
1083;DHT22;530;51.448;7.238;2024-01-15T05:50:17;2.50;99.90
1083;DHT22;530;51.448;7.238;2024-01-15T05:52:43;2.50;99.90
1083;DHT22;530;51.448;7.238;2024-01-15T05:55:09;2.50;99.90
1083;DHT22;530;51.448;7.238;2024-01-15T05:57:36;2.50;99.90
1083;DHT22;530;51.448;7.238;2024-01-15T06:00:03;2.60;99.90
1083;DHT22;530;51.448;7.238;2024-01-15T06:02:29;2.50;99.90
1083;DHT22;530;51.448;7.238;2024-01-15T06:04:54;2.50;99.90
1083;DHT22;530;51.448;7.238;2024-01-15T06:07:20;2.50;99.90
1083;DHT22;530;51.448;7.238;2024-01-15T06:09:46;2.50;99.90
1083;DHT22;530;51.448;7.238;2024-01-15T06:12:11;2.50;99.90
1083;DHT22;530;51.448;7.238;2024-01-15T06:14:37;2.50;99.90
1083;DHT22;530;51.448;7.238;2024-01-15T06:17:03;2.50;99.90
1083;DHT22;530;51.448;7.238;2024-01-15T06:19:29;2.50;99.90
1083;DHT22;530;51.448;7.238;2024-01-15T06:21:55;2.50;99.90
1083;DHT22;530;51.448;7.238;2024-01-15T06:24:20;2.50;99.90
1083;DHT22;530;51.448;7.238;2024-01-15T06:26:47;2.50;99.90
1083;DHT22;530;51.448;7.238;2024-01-15T06:29:12;2.50;99.90
1083;DHT22;530;51.448;7.238;2024-01-15T06:31:38;2.50;99.90
1083;DHT22;530;51.448;7.238;2024-01-15T06:34:04;2.50;99.90
1083;DHT22;530;51.448;7.238;2024-01-15T06:36:29;2.60;99.90
1083;DHT22;530;51.448;7.238;2024-01-15T06:38:55;2.60;99.90
1083;DHT22;530;51.448;7.238;2024-01-15T06:41:21;2.60;99.90
1083;DHT22;530;51.448;7.238;2024-01-15T06:43:48;2.60;99.90
1083;DHT22;530;51.448;7.238;2024-01-15T06:46:22;2.60;99.90
1083;DHT22;530;51.448;7.238;2024-01-15T06:48:48;2.60;99.90
1083;DHT22;530;51.448;7.238;2024-01-15T06:51:14;2.60;99.90
1083;DHT22;530;51.448;7.238;2024-01-15T06:53:40;2.60;99.90
1083;DHT22;530;51.448;7.238;2024-01-15T06:56:06;2.60;99.90
1083;DHT22;530;51.448;7.238;2024-01-15T06:58:32;2.60;99.90
1083;DHT22;530;51.448;7.238;2024-01-15T07:00:57;2.60;99.90
1083;DHT22;530;51.448;7.238;2024-01-15T07:03:23;2.60;99.90
1083;DHT22;530;51.448;7.238;2024-01-15T07:05:49;2.60;99.90
1083;DHT22;530;51.448;7.238;2024-01-15T07:08:15;2.60;99.90
1083;DHT22;530;51.448;7.238;2024-01-15T07:10:41;2.60;99.90
1083;DHT22;530;51.448;7.238;2024-01-15T07:13:06;2.70;99.90
1083;DHT22;530;51.448;7.238;2024-01-15T07:15:32;2.70;99.90
1083;DHT22;530;51.448;7.238;2024-01-15T07:17:58;2.70;99.90
1083;DHT22;530;51.448;7.238;2024-01-15T07:20:23;2.70;99.90
1083;DHT22;530;51.448;7.238;2024-01-15T07:22:49;2.70;99.90
1083;DHT22;530;51.448;7.238;2024-01-15T07:25:16;2.70;99.90
1083;DHT22;530;51.448;7.238;2024-01-15T07:27:41;2.70;99.90
1083;DHT22;530;51.448;7.238;2024-01-15T07:30:11;2.70;99.90
1083;DHT22;530;51.448;7.238;2024-01-15T07:32:37;2.70;99.90
1083;DHT22;530;51.448;7.238;2024-01-15T07:35:03;2.70;99.90
1083;DHT22;530;51.448;7.238;2024-01-15T07:37:29;2.70;99.90
1083;DHT22;530;51.448;7.238;2024-01-15T07:39:54;2.70;99.90
1083;DHT22;530;51.448;7.238;2024-01-15T07:42:20;2.70;99.90
1083;DHT22;530;51.448;7.238;2024-01-15T07:44:46;2.70;99.90
1083;DHT22;530;51.448;7.238;2024-01-15T07:47:12;2.70;99.90
1083;DHT22;530;51.448;7.238;2024-01-15T07:49:38;2.70;99.90
1083;DHT22;530;51.448;7.238;2024-01-15T07:52:04;2.70;99.90
1083;DHT22;530;51.448;7.238;2024-01-15T07:54:31;2.70;99.90
1083;DHT22;530;51.448;7.238;2024-01-15T07:57:01;2.70;99.90
1083;DHT22;530;51.448;7.238;2024-01-15T07:59:30;2.80;99.90
1083;DHT22;530;51.448;7.238;2024-01-15T08:01:58;2.80;99.90
1083;DHT22;530;51.448;7.238;2024-01-15T08:04:24;2.80;99.90
1083;DHT22;530;51.448;7.238;2024-01-15T08:06:50;2.80;99.90
1083;DHT22;530;51.448;7.238;2024-01-15T08:09:16;2.80;99.90
1083;DHT22;530;51.448;7.238;2024-01-15T08:11:42;2.80;99.90
1083;DHT22;530;51.448;7.238;2024-01-15T08:14:09;2.80;99.90
1083;DHT22;530;51.448;7.238;2024-01-15T08:16:35;2.80;99.90
1083;DHT22;530;51.448;7.238;2024-01-15T08:19:01;2.80;99.90
1083;DHT22;530;51.448;7.238;2024-01-15T08:21:27;2.80;99.90
1083;DHT22;530;51.448;7.238;2024-01-15T08:23:59;2.80;99.90
1083;DHT22;530;51.448;7.238;2024-01-15T08:26:25;2.80;99.90
1083;DHT22;530;51.448;7.238;2024-01-15T08:28:51;2.80;99.90
1083;DHT22;530;51.448;7.238;2024-01-15T08:31:16;2.80;99.90
1083;DHT22;530;51.448;7.238;2024-01-15T08:33:42;2.70;99.90
1083;DHT22;530;51.448;7.238;2024-01-15T08:36:09;2.70;99.90
1083;DHT22;530;51.448;7.238;2024-01-15T08:38:35;2.80;99.90
1083;DHT22;530;51.448;7.238;2024-01-15T08:41:01;2.70;99.90
1083;DHT22;530;51.448;7.238;2024-01-15T08:43:27;2.80;99.90
1083;DHT22;530;51.448;7.238;2024-01-15T08:45:53;2.70;99.90
1083;DHT22;530;51.448;7.238;2024-01-15T08:48:19;2.70;99.90
1083;DHT22;530;51.448;7.238;2024-01-15T08:50:45;2.70;99.90
1083;DHT22;530;51.448;7.238;2024-01-15T08:53:14;2.70;99.90
1083;DHT22;530;51.448;7.238;2024-01-15T08:55:40;2.70;99.90
1083;DHT22;530;51.448;7.238;2024-01-15T08:58:08;2.70;99.90
1083;DHT22;530;51.448;7.238;2024-01-15T09:00:34;2.70;99.90
1083;DHT22;530;51.448;7.238;2024-01-15T09:03:00;2.70;99.90
1083;DHT22;530;51.448;7.238;2024-01-15T09:05:26;2.70;99.90
1083;DHT22;530;51.448;7.238;2024-01-15T09:07:51;2.70;99.90
1083;DHT22;530;51.448;7.238;2024-01-15T09:10:18;2.70;99.90
1083;DHT22;530;51.448;7.238;2024-01-15T09:12:44;2.70;99.90
1083;DHT22;530;51.448;7.238;2024-01-15T09:15:09;2.70;99.90
1083;DHT22;530;51.448;7.238;2024-01-15T09:17:35;2.70;99.90
1083;DHT22;530;51.448;7.238;2024-01-15T09:20:01;2.70;99.90
1083;DHT22;530;51.448;7.238;2024-01-15T09:22:27;2.70;99.90
1083;DHT22;530;51.448;7.238;2024-01-15T09:24:52;2.70;99.90
1083;DHT22;530;51.448;7.238;2024-01-15T09:27:18;2.70;99.90
1083;DHT22;530;51.448;7.238;2024-01-15T09:29:44;2.70;99.90
1083;DHT22;530;51.448;7.238;2024-01-15T09:32:12;2.80;99.90
1083;DHT22;530;51.448;7.238;2024-01-15T09:34:38;2.80;99.90
1083;DHT22;530;51.448;7.238;2024-01-15T09:37:04;2.80;99.90
1083;DHT22;530;51.448;7.238;2024-01-15T09:39:30;2.80;99.90
1083;DHT22;530;51.448;7.238;2024-01-15T09:41:56;2.80;99.90
1083;DHT22;530;51.448;7.238;2024-01-15T09:44:23;2.80;99.90
1083;DHT22;530;51.448;7.238;2024-01-15T09:46:49;2.80;99.90
1083;DHT22;530;51.448;7.238;2024-01-15T09:49:18;2.70;99.90
1083;DHT22;530;51.448;7.238;2024-01-15T09:51:44;2.80;99.90
1083;DHT22;530;51.448;7.238;2024-01-15T09:54:10;2.70;99.90
1083;DHT22;530;51.448;7.238;2024-01-15T09:56:39;2.70;99.90
1083;DHT22;530;51.448;7.238;2024-01-15T09:59:05;2.70;99.90
1083;DHT22;530;51.448;7.238;2024-01-15T10:01:36;2.70;99.90
1083;DHT22;530;51.448;7.238;2024-01-15T10:04:02;2.70;99.90
1083;DHT22;530;51.448;7.238;2024-01-15T10:06:27;2.80;99.90
1083;DHT22;530;51.448;7.238;2024-01-15T10:08:54;2.80;99.90
1083;DHT22;530;51.448;7.238;2024-01-15T10:11:22;2.80;99.90
1083;DHT22;530;51.448;7.238;2024-01-15T10:13:47;2.80;99.90
1083;DHT22;530;51.448;7.238;2024-01-15T10:16:17;2.80;99.90
1083;DHT22;530;51.448;7.238;2024-01-15T10:18:43;2.80;99.90
1083;DHT22;530;51.448;7.238;2024-01-15T10:21:08;2.80;99.90
1083;DHT22;530;51.448;7.238;2024-01-15T10:23:34;2.80;99.90
1083;DHT22;530;51.448;7.238;2024-01-15T10:26:02;2.80;99.90
1083;DHT22;530;51.448;7.238;2024-01-15T10:28:29;2.80;99.90
1083;DHT22;530;51.448;7.238;2024-01-15T10:30:57;2.80;99.90
1083;DHT22;530;51.448;7.238;2024-01-15T10:33:23;2.80;99.90
1083;DHT22;530;51.448;7.238;2024-01-15T10:35:55;2.80;99.90
1083;DHT22;530;51.448;7.238;2024-01-15T10:38:22;2.80;99.90
1083;DHT22;530;51.448;7.238;2024-01-15T10:40:51;2.80;99.90
1083;DHT22;530;51.448;7.238;2024-01-15T10:43:17;2.80;99.90
1083;DHT22;530;51.448;7.238;2024-01-15T10:45:47;2.80;99.90
1083;DHT22;530;51.448;7.238;2024-01-15T10:48:13;2.80;99.90
1083;DHT22;530;51.448;7.238;2024-01-15T10:50:39;2.80;99.90
1083;DHT22;530;51.448;7.238;2024-01-15T10:53:06;2.80;99.90
1083;DHT22;530;51.448;7.238;2024-01-15T10:55:35;2.80;99.90
1083;DHT22;530;51.448;7.238;2024-01-15T10:58:03;2.80;99.90
1083;DHT22;530;51.448;7.238;2024-01-15T11:00:29;2.80;99.90
1083;DHT22;530;51.448;7.238;2024-01-15T11:02:56;2.80;99.90
1083;DHT22;530;51.448;7.238;2024-01-15T11:05:22;2.80;99.90
1083;DHT22;530;51.448;7.238;2024-01-15T11:07:49;2.80;99.90
1083;DHT22;530;51.448;7.238;2024-01-15T11:10:46;2.70;99.90
1083;DHT22;530;51.448;7.238;2024-01-15T11:13:21;2.80;99.90
1083;DHT22;530;51.448;7.238;2024-01-15T11:16:00;2.80;99.90
1083;DHT22;530;51.448;7.238;2024-01-15T11:18:31;2.80;99.90
1083;DHT22;530;51.448;7.238;2024-01-15T11:21:26;2.80;99.90
1083;DHT22;530;51.448;7.238;2024-01-15T11:23:56;2.80;99.90
1083;DHT22;530;51.448;7.238;2024-01-15T11:26:32;2.80;99.90
1083;DHT22;530;51.448;7.238;2024-01-15T11:29:00;2.80;99.90
1083;DHT22;530;51.448;7.238;2024-01-15T11:31:30;2.90;99.90
1083;DHT22;530;51.448;7.238;2024-01-15T11:34:15;2.90;99.90
1083;DHT22;530;51.448;7.238;2024-01-15T11:41:56;2.90;99.90
1083;DHT22;530;51.448;7.238;2024-01-15T11:44:22;2.90;99.90
1083;DHT22;530;51.448;7.238;2024-01-15T11:47:09;2.90;99.90
1083;DHT22;530;51.448;7.238;2024-01-15T11:52:22;2.80;99.90
1083;DHT22;530;51.448;7.238;2024-01-15T11:57:54;2.80;99.90
1083;DHT22;530;51.448;7.238;2024-01-15T12:00:21;2.80;99.90
1083;DHT22;530;51.448;7.238;2024-01-15T12:02:48;2.90;99.90
1083;DHT22;530;51.448;7.238;2024-01-15T12:05:15;2.90;99.90
1083;DHT22;530;51.448;7.238;2024-01-15T12:07:46;2.90;99.90
1083;DHT22;530;51.448;7.238;2024-01-15T12:10:18;2.80;99.90
1083;DHT22;530;51.448;7.238;2024-01-15T12:12:57;2.80;99.90
1083;DHT22;530;51.448;7.238;2024-01-15T12:15:25;2.80;99.90
1083;DHT22;530;51.448;7.238;2024-01-15T12:17:51;2.90;99.90
1083;DHT22;530;51.448;7.238;2024-01-15T12:20:18;2.80;99.90
1083;DHT22;530;51.448;7.238;2024-01-15T12:22:44;2.80;99.90
1083;DHT22;530;51.448;7.238;2024-01-15T12:25:10;2.80;99.90
1083;DHT22;530;51.448;7.238;2024-01-15T12:27:36;2.80;99.90
1083;DHT22;530;51.448;7.238;2024-01-15T12:30:02;2.80;99.90
1083;DHT22;530;51.448;7.238;2024-01-15T12:32:29;2.80;99.90
1083;DHT22;530;51.448;7.238;2024-01-15T12:34:55;2.80;99.90
1083;DHT22;530;51.448;7.238;2024-01-15T12:37:20;2.80;99.90
1083;DHT22;530;51.448;7.238;2024-01-15T12:39:47;2.80;99.90
1083;DHT22;530;51.448;7.238;2024-01-15T12:42:16;2.80;99.90
1083;DHT22;530;51.448;7.238;2024-01-15T12:44:43;2.80;99.90
1083;DHT22;530;51.448;7.238;2024-01-15T12:47:08;2.80;99.90
1083;DHT22;530;51.448;7.238;2024-01-15T12:49:36;2.80;99.90
1083;DHT22;530;51.448;7.238;2024-01-15T12:52:03;2.80;99.90
1083;DHT22;530;51.448;7.238;2024-01-15T12:54:28;2.80;99.90
1083;DHT22;530;51.448;7.238;2024-01-15T12:56:54;2.70;99.90
1083;DHT22;530;51.448;7.238;2024-01-15T12:59:20;2.70;99.90
1083;DHT22;530;51.448;7.238;2024-01-15T13:01:46;2.80;99.90
1083;DHT22;530;51.448;7.238;2024-01-15T13:04:24;2.80;99.90
1083;DHT22;530;51.448;7.238;2024-01-15T13:06:50;2.80;99.90
1083;DHT22;530;51.448;7.238;2024-01-15T13:09:17;2.80;99.90
1083;DHT22;530;51.448;7.238;2024-01-15T13:11:46;2.80;99.90
1083;DHT22;530;51.448;7.238;2024-01-15T13:14:12;2.80;99.90
1083;DHT22;530;51.448;7.238;2024-01-15T13:16:41;2.80;99.90
1083;DHT22;530;51.448;7.238;2024-01-15T13:19:10;2.80;99.90
1083;DHT22;530;51.448;7.238;2024-01-15T13:21:42;2.70;99.90
1083;DHT22;530;51.448;7.238;2024-01-15T13:24:08;2.70;99.90
1083;DHT22;530;51.448;7.238;2024-01-15T13:26:34;2.70;99.90
1083;DHT22;530;51.448;7.238;2024-01-15T13:29:01;2.70;99.90
1083;DHT22;530;51.448;7.238;2024-01-15T13:31:27;2.70;99.90
1083;DHT22;530;51.448;7.238;2024-01-15T13:33:53;2.60;99.90
1083;DHT22;530;51.448;7.238;2024-01-15T13:36:24;2.70;99.90
1083;DHT22;530;51.448;7.238;2024-01-15T13:38:51;2.70;99.90
1083;DHT22;530;51.448;7.238;2024-01-15T13:41:17;2.80;99.90
1083;DHT22;530;51.448;7.238;2024-01-15T13:43:50;2.70;99.90
1083;DHT22;530;51.448;7.238;2024-01-15T13:46:18;2.80;99.90
1083;DHT22;530;51.448;7.238;2024-01-15T13:48:44;2.90;99.90
1083;DHT22;530;51.448;7.238;2024-01-15T13:51:10;2.90;99.90
1083;DHT22;530;51.448;7.238;2024-01-15T13:53:38;3.00;99.90
1083;DHT22;530;51.448;7.238;2024-01-15T13:56:04;3.00;99.90
1083;DHT22;530;51.448;7.238;2024-01-15T13:58:31;3.00;99.90
1083;DHT22;530;51.448;7.238;2024-01-15T14:00:56;3.00;99.90
1083;DHT22;530;51.448;7.238;2024-01-15T14:03:22;3.00;99.90
1083;DHT22;530;51.448;7.238;2024-01-15T14:05:48;3.00;99.90
1083;DHT22;530;51.448;7.238;2024-01-15T14:08:13;3.00;99.90
1083;DHT22;530;51.448;7.238;2024-01-15T14:10:39;3.00;99.90
1083;DHT22;530;51.448;7.238;2024-01-15T14:13:05;3.10;99.90
1083;DHT22;530;51.448;7.238;2024-01-15T14:15:31;3.10;99.90
1083;DHT22;530;51.448;7.238;2024-01-15T14:17:56;3.10;99.90
1083;DHT22;530;51.448;7.238;2024-01-15T14:20:23;3.10;99.90
1083;DHT22;530;51.448;7.238;2024-01-15T14:22:49;3.00;99.90
1083;DHT22;530;51.448;7.238;2024-01-15T14:25:15;3.00;99.90
1083;DHT22;530;51.448;7.238;2024-01-15T14:27:40;3.00;99.90
1083;DHT22;530;51.448;7.238;2024-01-15T14:30:06;3.00;99.90
1083;DHT22;530;51.448;7.238;2024-01-15T14:32:34;2.90;99.90
1083;DHT22;530;51.448;7.238;2024-01-15T14:34:59;3.00;99.90
1083;DHT22;530;51.448;7.238;2024-01-15T14:37:25;2.90;99.90
1083;DHT22;530;51.448;7.238;2024-01-15T14:39:51;2.90;99.90
1083;DHT22;530;51.448;7.238;2024-01-15T14:42:17;2.90;99.90
1083;DHT22;530;51.448;7.238;2024-01-15T14:44:43;2.90;99.90
1083;DHT22;530;51.448;7.238;2024-01-15T14:47:09;2.90;99.90
1083;DHT22;530;51.448;7.238;2024-01-15T14:49:34;2.90;99.90
1083;DHT22;530;51.448;7.238;2024-01-15T14:52:00;2.90;99.90
1083;DHT22;530;51.448;7.238;2024-01-15T14:54:26;2.90;99.90
1083;DHT22;530;51.448;7.238;2024-01-15T14:56:52;2.90;99.90
1083;DHT22;530;51.448;7.238;2024-01-15T14:59:17;2.90;99.90
1083;DHT22;530;51.448;7.238;2024-01-15T15:01:43;2.90;99.90
1083;DHT22;530;51.448;7.238;2024-01-15T15:04:09;2.90;99.90
1083;DHT22;530;51.448;7.238;2024-01-15T15:06:36;2.90;99.90
1083;DHT22;530;51.448;7.238;2024-01-15T15:09:03;2.80;99.90
1083;DHT22;530;51.448;7.238;2024-01-15T15:11:34;2.90;99.90
1083;DHT22;530;51.448;7.238;2024-01-15T15:14:01;2.90;99.90
1083;DHT22;530;51.448;7.238;2024-01-15T15:16:26;2.90;99.90
1083;DHT22;530;51.448;7.238;2024-01-15T15:18:53;2.90;99.90
1083;DHT22;530;51.448;7.238;2024-01-15T15:21:20;2.90;99.90
1083;DHT22;530;51.448;7.238;2024-01-15T15:23:46;2.90;99.90
1083;DHT22;530;51.448;7.238;2024-01-15T15:26:13;2.90;99.90
1083;DHT22;530;51.448;7.238;2024-01-15T15:28:38;2.90;99.90
1083;DHT22;530;51.448;7.238;2024-01-15T15:31:07;2.90;99.90
1083;DHT22;530;51.448;7.238;2024-01-15T15:33:34;2.90;99.90
1083;DHT22;530;51.448;7.238;2024-01-15T15:36:00;2.90;99.90
1083;DHT22;530;51.448;7.238;2024-01-15T15:38:30;2.80;99.90
1083;DHT22;530;51.448;7.238;2024-01-15T15:40:56;2.80;99.90
1083;DHT22;530;51.448;7.238;2024-01-15T15:43:22;2.80;99.90
1083;DHT22;530;51.448;7.238;2024-01-15T15:45:48;2.80;99.90
1083;DHT22;530;51.448;7.238;2024-01-15T15:48:14;2.80;99.90
1083;DHT22;530;51.448;7.238;2024-01-15T15:50:39;2.80;99.90
1083;DHT22;530;51.448;7.238;2024-01-15T15:53:05;2.70;99.90
1083;DHT22;530;51.448;7.238;2024-01-15T15:55:30;2.80;99.90
1083;DHT22;530;51.448;7.238;2024-01-15T15:57:57;2.80;99.90
1083;DHT22;530;51.448;7.238;2024-01-15T16:00:23;2.70;99.90
1083;DHT22;530;51.448;7.238;2024-01-15T16:02:48;2.80;99.90
1083;DHT22;530;51.448;7.238;2024-01-15T16:05:14;2.70;99.90
1083;DHT22;530;51.448;7.238;2024-01-15T16:07:40;2.70;99.90
1083;DHT22;530;51.448;7.238;2024-01-15T16:10:06;2.80;99.90
1083;DHT22;530;51.448;7.238;2024-01-15T16:12:32;2.70;99.90
1083;DHT22;530;51.448;7.238;2024-01-15T16:15:00;2.70;99.90
1083;DHT22;530;51.448;7.238;2024-01-15T16:17:26;2.70;99.90
1083;DHT22;530;51.448;7.238;2024-01-15T16:19:52;2.70;99.90
1083;DHT22;530;51.448;7.238;2024-01-15T16:22:19;2.70;99.90
1083;DHT22;530;51.448;7.238;2024-01-15T16:24:44;2.70;99.90
1083;DHT22;530;51.448;7.238;2024-01-15T16:27:10;2.70;99.90
1083;DHT22;530;51.448;7.238;2024-01-15T16:29:36;2.70;99.90
1083;DHT22;530;51.448;7.238;2024-01-15T16:32:01;2.70;99.90
1083;DHT22;530;51.448;7.238;2024-01-15T16:34:29;2.70;99.90
1083;DHT22;530;51.448;7.238;2024-01-15T16:36:54;2.60;99.90
1083;DHT22;530;51.448;7.238;2024-01-15T16:39:20;2.60;99.90
1083;DHT22;530;51.448;7.238;2024-01-15T16:41:46;2.60;99.90